createdAt,value
2023-02-06T00:01:24.234Z,98371.16
2023-02-06T00:03:51.277Z,98357.75
2023-02-06T00:06:18.362Z,98355.91
2023-02-06T00:08:45.543Z,98361.28
2023-02-06T00:11:16.701Z,98366.59
2023-02-06T00:13:45.331Z,98359.25
2023-02-06T00:16:25.703Z,98373.59
2023-02-06T00:18:54.090Z,98371.59
2023-02-06T00:21:24.462Z,98380.78
2023-02-06T00:23:54.026Z,98379.13
2023-02-06T00:26:21.049Z,98371.59
2023-02-06T00:28:48.160Z,98383.00
2023-02-06T00:31:15.797Z,98372.09
2023-02-06T00:33:42.825Z,98368.94
2023-02-06T00:36:10.106Z,98375.16
2023-02-06T00:38:38.049Z,98376.25
2023-02-06T00:41:05.513Z,98377.91
2023-02-06T00:43:32.797Z,98387.94
2023-02-06T00:45:59.611Z,98387.03
2023-02-06T00:48:26.525Z,98381.78
2023-02-06T00:50:54.171Z,98388.75
2023-02-06T00:53:21.831Z,98387.75
2023-02-06T00:55:48.660Z,98384.44
2023-02-06T00:58:15.601Z,98384.44
2023-02-06T01:00:42.397Z,98397.06
2023-02-06T01:03:09.312Z,98390.84
2023-02-06T01:05:36.505Z,98394.66
2023-02-06T01:08:04.599Z,98388.72
2023-02-06T01:10:32.470Z,98389.63
2023-02-06T01:12:59.379Z,98391.56
2023-02-06T01:15:26.199Z,98397.56
2023-02-06T01:17:53.020Z,98390.72
2023-02-06T01:20:21.489Z,98392.41
2023-02-06T01:22:48.286Z,98396.66
2023-02-06T01:25:15.281Z,98397.38
2023-02-06T01:27:42.087Z,98400.41
2023-02-06T01:30:11.094Z,98398.28
2023-02-06T01:32:40.011Z,98401.28
2023-02-06T01:35:09.425Z,98399.72
2023-02-06T01:37:37.923Z,98397.47
2023-02-06T01:40:07.645Z,98403.00
2023-02-06T01:42:37.324Z,98405.81
2023-02-06T01:45:45.269Z,98396.47
2023-02-06T01:48:19.196Z,98403.88
2023-02-06T01:50:51.808Z,98406.88
2023-02-06T01:53:21.105Z,98408.94
2023-02-06T01:55:50.647Z,98401.75
2023-02-06T01:58:26.529Z,98395.09
2023-02-06T02:00:53.750Z,98393.06
2023-02-06T02:03:21.100Z,98389.16
2023-02-06T02:05:50.562Z,98387.53
2023-02-06T02:08:32.289Z,98384.03
2023-02-06T02:11:00.454Z,98383.63
2023-02-06T02:13:27.317Z,98387.22
2023-02-06T02:16:30.817Z,98381.72
2023-02-06T02:19:23.589Z,98384.22
2023-02-06T02:22:18.448Z,98388.22
2023-02-06T02:25:32.018Z,98377.72
2023-02-06T02:28:42.584Z,98379.69
2023-02-06T02:31:36.590Z,98375.63
2023-02-06T02:34:44.868Z,98375.06
2023-02-06T02:37:46.567Z,98377.09
2023-02-06T02:40:24.349Z,98372.41
2023-02-06T02:43:44.942Z,98384.78
2023-02-06T02:46:35.124Z,98364.91
2023-02-06T02:49:08.968Z,98371.25
2023-02-06T02:51:38.351Z,98371.41
2023-02-06T02:54:05.475Z,98373.25
2023-02-06T02:56:33.572Z,98361.59
2023-02-06T02:59:25.536Z,98376.63
2023-02-06T03:02:13.154Z,98370.84
2023-02-06T03:04:56.685Z,98385.13
2023-02-06T03:08:07.486Z,98393.94
2023-02-06T03:10:42.449Z,98394.59
2023-02-06T03:13:24.745Z,98402.75
2023-02-06T03:16:14.136Z,98406.22
2023-02-06T03:18:48.489Z,98403.72
2023-02-06T03:21:19.905Z,98396.53
2023-02-06T03:23:50.365Z,98401.31
2023-02-06T03:26:21.026Z,98400.97
2023-02-06T03:28:52.930Z,98410.91
2023-02-06T03:31:27.876Z,98411.00
2023-02-06T03:34:33.869Z,98413.00
2023-02-06T03:37:00.764Z,98414.75
2023-02-06T03:39:27.836Z,98415.84
2023-02-06T03:41:56.960Z,98411.00
2023-02-06T03:44:30.716Z,98429.16
2023-02-06T03:46:59.750Z,98417.28
2023-02-06T03:49:29.903Z,98418.31
2023-02-06T03:52:13.989Z,98422.94
2023-02-06T03:54:48.362Z,98416.31
2023-02-06T03:57:19.343Z,98412.97
2023-02-06T03:59:46.984Z,98414.03
2023-02-06T04:02:15.098Z,98415.84
2023-02-06T04:04:43.134Z,98414.31
2023-02-06T04:07:19.474Z,98408.41
2023-02-06T04:09:46.460Z,98399.34
2023-02-06T04:12:13.335Z,98396.16
2023-02-06T04:14:40.149Z,98392.75
2023-02-06T04:17:07.693Z,98380.75
2023-02-06T04:19:35.325Z,98382.72
2023-02-06T04:22:02.739Z,98383.03
2023-02-06T04:24:31.009Z,98371.25
2023-02-06T04:26:58.513Z,98369.63
2023-02-06T04:29:26.071Z,98373.28
2023-02-06T04:31:52.877Z,98373.28
2023-02-06T04:34:19.783Z,98356.13
2023-02-06T04:36:46.635Z,98361.13
2023-02-06T04:39:13.540Z,98360.41
2023-02-06T04:41:40.405Z,98370.22
2023-02-06T04:44:07.227Z,98366.75
2023-02-06T04:46:34.042Z,98367.66
2023-02-06T04:49:00.837Z,98377.28
2023-02-06T04:51:27.749Z,98371.56
2023-02-06T04:53:54.643Z,98372.31
2023-02-06T04:56:21.501Z,98372.47
2023-02-06T04:58:48.375Z,98368.28
2023-02-06T05:01:16.969Z,98374.44
2023-02-06T05:03:44.089Z,98364.13
2023-02-06T05:06:11.298Z,98369.28
2023-02-06T05:08:38.553Z,98373.72
2023-02-06T05:11:06.130Z,98373.16
2023-02-06T05:13:34.357Z,98367.47
2023-02-06T05:16:15.395Z,98365.09
2023-02-06T05:18:44.630Z,98363.59
2023-02-06T05:21:13.169Z,98357.16
2023-02-06T05:23:40.337Z,98352.34
2023-02-06T05:26:07.168Z,98359.38
2023-02-06T05:28:34.026Z,98355.34
2023-02-06T05:31:02.565Z,98358.88
2023-02-06T05:33:29.904Z,98356.38
2023-02-06T05:36:07.737Z,98359.09
2023-02-06T05:38:34.661Z,98355.81
2023-02-06T05:41:01.565Z,98358.38
2023-02-06T05:43:28.411Z,98354.16
2023-02-06T05:45:55.281Z,98359.78
2023-02-06T05:48:22.103Z,98343.59
2023-02-06T05:50:49.841Z,98346.00
2023-02-06T05:53:17.866Z,98360.50
2023-02-06T05:55:44.712Z,98358.94
2023-02-06T05:58:11.642Z,98352.31
2023-02-06T06:00:38.591Z,98351.06
2023-02-06T06:03:05.459Z,98350.28
2023-02-06T06:05:32.340Z,98347.09
2023-02-06T06:07:59.171Z,98365.22
2023-02-06T06:10:26.007Z,98357.91
2023-02-06T06:12:52.825Z,98361.44
2023-02-06T06:15:19.728Z,98350.09
2023-02-06T06:17:46.498Z,98349.94
2023-02-06T06:20:13.536Z,98365.28
2023-02-06T06:22:40.787Z,98367.75
2023-02-06T06:25:08.061Z,98371.94
2023-02-06T06:27:34.860Z,98368.22
2023-02-06T06:30:01.773Z,98367.31
2023-02-06T06:32:28.566Z,98368.06
2023-02-06T06:34:55.408Z,98373.22
2023-02-06T06:37:22.196Z,98376.50
2023-02-06T06:39:49.030Z,98376.84
2023-02-06T06:42:15.847Z,98379.94
2023-02-06T06:44:42.655Z,98368.59
2023-02-06T06:47:10.747Z,98368.53
2023-02-06T06:49:37.723Z,98364.91
2023-02-06T06:52:08.873Z,98364.47
2023-02-06T06:54:40.351Z,98354.78
2023-02-06T06:57:07.187Z,98356.66
2023-02-06T06:59:33.975Z,98365.50
2023-02-06T07:02:00.807Z,98373.22
2023-02-06T07:04:31.306Z,98375.13
2023-02-06T07:06:58.249Z,98375.09
2023-02-06T07:09:25.434Z,98378.22
2023-02-06T07:11:52.226Z,98367.53
2023-02-06T07:14:19.233Z,98369.41
2023-02-06T07:16:46.100Z,98361.44
2023-02-06T07:19:12.968Z,98383.41
2023-02-06T07:21:39.971Z,98381.75
2023-02-06T07:24:07.093Z,98384.09
2023-02-06T07:26:34.244Z,98376.13
2023-02-06T07:29:01.158Z,98385.34
2023-02-06T07:31:28.013Z,98383.44
2023-02-06T07:33:54.905Z,98376.13
2023-02-06T07:36:21.739Z,98358.22
2023-02-06T07:38:48.973Z,98371.69
2023-02-06T07:41:17.827Z,98374.75
2023-02-06T07:43:44.744Z,98381.63
2023-02-06T07:46:11.685Z,98373.09
2023-02-06T07:48:38.610Z,98378.25
2023-02-06T07:51:09.484Z,98380.13
2023-02-06T07:53:37.345Z,98382.97
2023-02-06T07:56:16.950Z,98387.84
2023-02-06T07:58:43.975Z,98384.88
2023-02-06T08:01:11.279Z,98393.97
2023-02-06T08:03:38.333Z,98388.22
2023-02-06T08:06:24.935Z,98396.94
2023-02-06T08:08:55.330Z,98394.88
2023-02-06T08:11:25.200Z,98392.28
2023-02-06T08:13:52.044Z,98389.28
2023-02-06T08:16:22.082Z,98392.97
2023-02-06T08:18:49.187Z,98401.06
2023-02-06T08:21:20.730Z,98390.22
2023-02-06T08:23:53.884Z,98388.81
2023-02-06T08:26:21.907Z,98377.03
2023-02-06T08:28:50.437Z,98370.94
2023-02-06T08:31:33.290Z,98372.06
2023-02-06T08:34:01.137Z,98361.59
2023-02-06T08:36:32.593Z,98368.25
2023-02-06T08:39:00.760Z,98367.88
2023-02-06T08:41:32.778Z,98380.59
2023-02-06T08:44:01.863Z,98381.78
2023-02-06T08:46:32.103Z,98379.81
2023-02-06T08:49:07.186Z,98380.53
2023-02-06T08:51:35.533Z,98375.13
2023-02-06T08:54:06.875Z,98367.78
2023-02-06T08:56:35.693Z,98363.50
2023-02-06T08:59:03.429Z,98364.16
2023-02-06T09:01:33.509Z,98382.13
2023-02-06T09:04:04.815Z,98376.47
2023-02-06T09:06:31.902Z,98370.13
2023-02-06T09:08:59.022Z,98375.25
2023-02-06T09:11:27.142Z,98370.66
2023-02-06T09:13:59.826Z,98370.28
2023-02-06T09:16:29.134Z,98365.28
2023-02-06T09:19:01.246Z,98366.72
2023-02-06T09:21:32.027Z,98376.28
2023-02-06T09:24:02.348Z,98360.88
2023-02-06T09:26:38.895Z,98366.69
2023-02-06T09:29:09.804Z,98365.03
2023-02-06T09:31:39.526Z,98368.38
2023-02-06T09:34:07.577Z,98373.91
2023-02-06T09:36:35.146Z,98377.56
2023-02-06T09:39:06.191Z,98373.59
2023-02-06T09:41:43.018Z,98375.94
2023-02-06T09:44:24.742Z,98364.22
2023-02-06T09:46:57.604Z,98368.69
2023-02-06T09:49:37.616Z,98371.53
2023-02-06T09:52:23.236Z,98369.28
2023-02-06T09:54:55.851Z,98369.00
2023-02-06T09:57:37.628Z,98359.03
2023-02-06T10:00:37.928Z,98374.91
2023-02-06T10:03:37.468Z,98362.59
2023-02-06T10:06:22.853Z,98367.47
2023-02-06T10:08:56.943Z,98374.06
2023-02-06T10:11:29.522Z,98371.25
2023-02-06T10:14:02.042Z,98369.88
2023-02-06T10:16:55.739Z,98361.59
2023-02-06T10:19:46.623Z,98354.94
2023-02-06T10:22:21.184Z,98354.22
2023-02-06T10:25:03.069Z,98345.94
2023-02-06T10:27:32.874Z,98343.91
2023-02-06T10:30:01.477Z,98333.06
2023-02-06T10:32:40.208Z,98318.00
2023-02-06T10:35:29.789Z,98320.91
2023-02-06T10:38:18.205Z,98328.47
2023-02-06T10:41:04.816Z,98316.41
2023-02-06T10:43:55.262Z,98310.78
2023-02-06T10:46:41.518Z,98300.63
2023-02-06T10:49:38.374Z,98297.09
2023-02-06T10:52:27.563Z,98292.22
2023-02-06T10:54:59.608Z,98297.97
2023-02-06T10:57:30.924Z,98283.66
2023-02-06T11:00:04.270Z,98279.75
2023-02-06T11:02:44.176Z,98275.56
2023-02-06T11:05:19.266Z,98273.31
2023-02-06T11:07:51.575Z,98280.38
2023-02-06T11:10:23.766Z,98276.44
2023-02-06T11:13:12.648Z,98284.59
2023-02-06T11:15:54.822Z,98283.34
2023-02-06T11:18:28.947Z,98266.06
2023-02-06T11:20:56.063Z,98263.81
2023-02-06T11:23:27.688Z,98265.47
2023-02-06T11:26:14.395Z,98268.56
2023-02-06T11:29:17.947Z,98253.81
2023-02-06T11:31:51.458Z,98250.59
2023-02-06T11:35:05.075Z,98250.16
2023-02-06T11:37:39.535Z,98238.00
2023-02-06T11:40:18.361Z,98250.06
2023-02-06T11:42:48.159Z,98242.78
2023-02-06T11:45:24.986Z,98248.50
2023-02-06T11:47:52.349Z,98241.75
2023-02-06T11:50:37.001Z,98232.22
2023-02-06T11:53:17.114Z,98231.38
2023-02-06T11:55:46.870Z,98231.16
2023-02-06T11:58:13.600Z,98235.22
2023-02-06T12:00:52.571Z,98230.63
2023-02-06T12:03:27.921Z,98227.41
2023-02-06T12:05:59.579Z,98224.19
2023-02-06T12:08:47.292Z,98220.75
2023-02-06T12:11:24.759Z,98218.06
2023-02-06T12:14:37.504Z,98229.28
2023-02-06T12:17:16.797Z,98234.47
2023-02-06T12:20:05.316Z,98231.13
2023-02-06T12:22:40.347Z,98239.88
2023-02-06T12:25:27.449Z,98229.47
2023-02-06T12:28:14.422Z,98228.88
2023-02-06T12:30:55.644Z,98205.59
2023-02-06T12:33:34.968Z,98203.72
2023-02-06T12:36:27.869Z,98192.91
2023-02-06T12:39:17.541Z,98181.47
2023-02-06T12:42:03.033Z,98179.56
2023-02-06T12:44:51.078Z,98172.09
2023-02-06T12:47:29.370Z,98175.41
2023-02-06T12:50:25.232Z,98162.06
2023-02-06T12:53:02.814Z,98168.25
2023-02-06T12:55:37.094Z,98170.16
2023-02-06T12:58:04.750Z,98163.72
2023-02-06T13:00:49.557Z,98166.34
2023-02-06T13:03:31.327Z,98164.16
2023-02-06T13:06:23.081Z,98165.59
2023-02-06T13:09:04.136Z,98167.69
2023-02-06T13:11:40.529Z,98169.81
2023-02-06T13:14:19.861Z,98173.09
2023-02-06T13:17:36.498Z,98175.00
2023-02-06T13:20:18.576Z,98169.00
2023-02-06T13:23:11.411Z,98184.22
2023-02-06T13:25:38.398Z,98187.22
2023-02-06T13:28:23.335Z,98193.97
2023-02-06T13:31:09.220Z,98194.84
2023-02-06T13:33:55.774Z,98194.53
2023-02-06T13:36:49.053Z,98194.25
2023-02-06T13:39:29.795Z,98196.06
2023-02-06T13:42:01.032Z,98177.25
2023-02-06T13:44:38.348Z,98175.84
2023-02-06T13:47:38.407Z,98163.81
2023-02-06T13:50:07.143Z,98166.63
2023-02-06T13:53:18.562Z,98167.50
2023-02-06T13:55:48.605Z,98162.34
2023-02-06T13:58:20.880Z,98154.91
2023-02-06T14:00:51.244Z,98158.56
2023-02-06T14:03:32.684Z,98156.41
2023-02-06T14:06:11.383Z,98145.72
2023-02-06T14:09:10.447Z,98138.25
2023-02-06T14:12:34.928Z,98136.22
2023-02-06T14:15:08.586Z,98128.72
2023-02-06T14:18:07.193Z,98129.97
2023-02-06T14:20:49.830Z,98128.09
2023-02-06T14:23:47.225Z,98119.50
2023-02-06T14:27:00.838Z,98112.72
2023-02-06T14:30:04.969Z,98116.00
2023-02-06T14:32:56.404Z,98120.78
2023-02-06T14:35:55.224Z,98117.97
2023-02-06T14:38:55.731Z,98117.13
2023-02-06T14:41:22.986Z,98127.06
2023-02-06T14:43:51.052Z,98131.56
2023-02-06T14:46:19.560Z,98129.78
2023-02-06T14:48:58.555Z,98125.69
2023-02-06T14:51:38.904Z,98115.56
2023-02-06T14:54:27.664Z,98110.63
2023-02-06T14:57:03.460Z,98100.31
2023-02-06T14:59:31.481Z,98112.25
2023-02-06T15:01:59.889Z,98119.34
2023-02-06T15:04:30.784Z,98119.25
2023-02-06T15:07:02.613Z,98117.84
2023-02-06T15:09:37.820Z,98123.16
2023-02-06T15:12:24.835Z,98123.41
2023-02-06T15:14:55.034Z,98115.34
2023-02-06T15:17:26.391Z,98117.94
2023-02-06T15:19:53.354Z,98127.69
2023-02-06T15:22:29.519Z,98129.78
2023-02-06T15:25:15.008Z,98116.75
2023-02-06T15:27:41.909Z,98115.91
2023-02-06T15:30:24.003Z,98120.63
2023-02-06T15:32:54.075Z,98129.22
2023-02-06T15:35:32.308Z,98123.06
2023-02-06T15:38:25.044Z,98115.13
2023-02-06T15:40:58.063Z,98101.66
2023-02-06T15:43:26.928Z,98099.81
2023-02-06T15:45:57.946Z,98095.25
2023-02-06T15:48:51.395Z,98094.63
2023-02-06T15:51:26.605Z,98097.41
2023-02-06T15:54:20.812Z,98091.34
2023-02-06T15:57:02.901Z,98102.97
2023-02-06T15:59:33.312Z,98110.44
2023-02-06T16:02:01.074Z,98109.59
2023-02-06T16:04:35.660Z,98121.56
2023-02-06T16:07:07.409Z,98124.78
2023-02-06T16:10:04.550Z,98128.91
2023-02-06T16:12:41.728Z,98144.50
2023-02-06T16:15:35.184Z,98148.16
2023-02-06T16:18:23.354Z,98144.50
2023-02-06T16:20:50.796Z,98145.94
2023-02-06T16:23:44.618Z,98148.03
2023-02-06T16:26:19.955Z,98152.72
2023-02-06T16:29:09.762Z,98168.63
2023-02-06T16:31:43.216Z,98162.38
2023-02-06T16:34:44.085Z,98172.34
2023-02-06T16:37:22.137Z,98184.19
2023-02-06T16:39:49.697Z,98184.28
2023-02-06T16:42:27.149Z,98184.81
2023-02-06T16:44:59.516Z,98191.88
2023-02-06T16:47:27.295Z,98194.59
2023-02-06T16:49:54.131Z,98205.47
2023-02-06T16:52:31.486Z,98198.28
2023-02-06T16:54:59.048Z,98206.63
2023-02-06T16:57:36.500Z,98219.91
2023-02-06T17:00:09.438Z,98213.44
2023-02-06T17:02:36.700Z,98217.81
2023-02-06T17:05:04.921Z,98226.56
2023-02-06T17:07:34.909Z,98229.03
2023-02-06T17:10:02.238Z,98230.69
2023-02-06T17:12:30.376Z,98228.25
2023-02-06T17:14:58.357Z,98209.88
2023-02-06T17:17:25.275Z,98199.91
2023-02-06T17:19:53.698Z,98214.44
2023-02-06T17:22:20.721Z,98221.91
2023-02-06T17:24:47.761Z,98214.72
2023-02-06T17:27:19.047Z,98208.72
2023-02-06T17:29:47.550Z,98213.63
2023-02-06T17:32:16.143Z,98213.78
2023-02-06T17:34:43.147Z,98223.06
2023-02-06T17:37:20.389Z,98225.94
2023-02-06T17:39:49.489Z,98225.94
2023-02-06T17:42:16.446Z,98226.06
2023-02-06T17:44:44.288Z,98228.09
2023-02-06T17:47:13.108Z,98230.59
2023-02-06T17:49:41.479Z,98231.44
2023-02-06T17:52:08.410Z,98235.03
2023-02-06T17:54:35.668Z,98239.31
2023-02-06T17:57:02.621Z,98241.19
2023-02-06T17:59:29.455Z,98241.28
2023-02-06T18:01:56.470Z,98237.94
2023-02-06T18:04:24.565Z,98240.53
2023-02-06T18:06:51.535Z,98243.88
2023-02-06T18:09:18.518Z,98255.72
2023-02-06T18:11:45.510Z,98243.66
2023-02-06T18:14:12.629Z,98242.38
2023-02-06T18:16:42.724Z,98227.44
2023-02-06T18:19:10.545Z,98223.69
2023-02-06T18:21:37.422Z,98227.78
2023-02-06T18:24:05.439Z,98230.38
2023-02-06T18:26:32.658Z,98222.59
2023-02-06T18:29:03.678Z,98230.25
2023-02-06T18:31:33.450Z,98237.31
2023-02-06T18:34:03.885Z,98239.06
2023-02-06T18:36:30.682Z,98238.16
2023-02-06T18:38:57.698Z,98229.53
2023-02-06T18:41:42.973Z,98248.13
2023-02-06T18:44:11.217Z,98233.28
2023-02-06T18:46:39.004Z,98232.75
2023-02-06T18:49:06.636Z,98232.41
2023-02-06T18:51:33.620Z,98227.44
2023-02-06T18:54:03.713Z,98224.47
2023-02-06T18:56:30.824Z,98228.00
2023-02-06T18:58:57.704Z,98224.88
2023-02-06T19:01:25.501Z,98216.66
2023-02-06T19:03:53.541Z,98222.97
2023-02-06T19:06:25.489Z,98219.00
2023-02-06T19:08:52.300Z,98224.66
2023-02-06T19:11:19.210Z,98233.66
2023-02-06T19:13:46.261Z,98223.84
2023-02-06T19:16:16.456Z,98236.81
2023-02-06T19:18:47.602Z,98233.66
2023-02-06T19:21:20.365Z,98237.91
2023-02-06T19:23:58.950Z,98240.88
2023-02-06T19:26:27.319Z,98237.75
2023-02-06T19:28:54.214Z,98240.25
2023-02-06T19:31:24.597Z,98234.25
2023-02-06T19:33:54.640Z,98243.28
2023-02-06T19:36:23.048Z,98241.88
2023-02-06T19:38:57.327Z,98237.91
2023-02-06T19:41:27.106Z,98223.31
2023-02-06T19:43:56.115Z,98226.63
2023-02-06T19:46:26.433Z,98233.50
2023-02-06T19:48:54.770Z,98236.63
2023-02-06T19:51:35.392Z,98227.94
2023-02-06T19:54:02.818Z,98224.03
2023-02-06T19:56:39.902Z,98236.44
2023-02-06T19:59:17.895Z,98235.72
2023-02-06T20:01:57.485Z,98251.03
2023-02-06T20:04:29.721Z,98251.31
2023-02-06T20:06:56.663Z,98252.72
2023-02-06T20:09:24.764Z,98255.31
2023-02-06T20:11:51.846Z,98252.34
2023-02-06T20:14:19.907Z,98251.78
2023-02-06T20:16:47.674Z,98261.31
2023-02-06T20:19:18.999Z,98261.78
2023-02-06T20:21:50.889Z,98268.66
2023-02-06T20:24:24.008Z,98269.75
2023-02-06T20:26:55.998Z,98284.63
2023-02-06T20:29:33.780Z,98264.28
2023-02-06T20:32:01.152Z,98281.41
2023-02-06T20:34:28.774Z,98283.59
2023-02-06T20:36:56.716Z,98277.50
2023-02-06T20:39:24.317Z,98288.69
2023-02-06T20:41:51.495Z,98285.53
2023-02-06T20:44:20.764Z,98284.19
2023-02-06T20:46:48.470Z,98297.13
2023-02-06T20:49:27.384Z,98288.38
2023-02-06T20:51:54.886Z,98281.94
2023-02-06T20:54:22.605Z,98278.59
2023-02-06T20:56:49.938Z,98293.19
2023-02-06T20:59:19.852Z,98305.34
2023-02-06T21:01:46.902Z,98317.88
2023-02-06T21:04:15.385Z,98324.88
2023-02-06T21:06:43.217Z,98314.38
2023-02-06T21:09:11.676Z,98309.34
2023-02-06T21:11:45.727Z,98294.53
2023-02-06T21:14:13.677Z,98288.78
2023-02-06T21:16:40.714Z,98294.84
2023-02-06T21:19:10.119Z,98294.16
2023-02-06T21:21:37.705Z,98298.53
2023-02-06T21:24:05.365Z,98293.19
2023-02-06T21:26:33.135Z,98286.00
2023-02-06T21:29:02.435Z,98291.38
2023-02-06T21:31:37.790Z,98292.69
2023-02-06T21:34:25.965Z,98290.50
2023-02-06T21:36:54.542Z,98294.16
2023-02-06T21:39:26.790Z,98283.56
2023-02-06T21:41:54.768Z,98273.13
2023-02-06T21:44:24.121Z,98276.28
2023-02-06T21:46:51.852Z,98273.56
2023-02-06T21:49:19.562Z,98257.31
2023-02-06T21:51:46.344Z,98263.00
2023-02-06T21:54:13.229Z,98270.53
2023-02-06T21:56:40.027Z,98278.59
2023-02-06T21:59:07.646Z,98275.25
2023-02-06T22:01:34.899Z,98272.06
2023-02-06T22:04:03.590Z,98268.72
2023-02-06T22:06:30.666Z,98264.06
2023-02-06T22:09:05.099Z,98254.03
2023-02-06T22:11:32.211Z,98263.53
2023-02-06T22:14:06.794Z,98252.69
2023-02-06T22:16:34.185Z,98240.69
2023-02-06T22:19:00.975Z,98229.31
2023-02-06T22:21:30.859Z,98233.53
2023-02-06T22:24:04.471Z,98244.72
2023-02-06T22:26:33.098Z,98245.84
2023-02-06T22:29:00.599Z,98247.97
2023-02-06T22:31:32.740Z,98255.25
2023-02-06T22:34:00.688Z,98264.31
2023-02-06T22:36:31.184Z,98262.72
2023-02-06T22:39:01.952Z,98280.28
2023-02-06T22:41:29.648Z,98275.22
2023-02-06T22:43:56.588Z,98292.28
2023-02-06T22:46:34.346Z,98282.13
2023-02-06T22:49:01.573Z,98285.75
2023-02-06T22:51:29.065Z,98292.75
2023-02-06T22:53:56.344Z,98303.06
2023-02-06T22:56:35.960Z,98303.06
2023-02-06T22:59:16.771Z,98314.94
2023-02-06T23:01:44.942Z,98323.53
2023-02-06T23:04:25.070Z,98318.22
2023-02-06T23:06:52.854Z,98328.25
2023-02-06T23:09:26.539Z,98319.97
2023-02-06T23:11:54.583Z,98315.47
2023-02-06T23:14:21.705Z,98323.38
2023-02-06T23:16:48.891Z,98325.19
2023-02-06T23:19:17.426Z,98323.81
2023-02-06T23:21:47.963Z,98339.81
2023-02-06T23:24:15.503Z,98336.88
2023-02-06T23:26:45.046Z,98336.19
2023-02-06T23:29:15.807Z,98344.31
2023-02-06T23:31:43.911Z,98350.50
2023-02-06T23:34:11.151Z,98354.34
2023-02-06T23:36:37.952Z,98372.66
2023-02-06T23:39:05.980Z,98367.69
2023-02-06T23:41:33.611Z,98370.09
2023-02-06T23:44:06.876Z,98359.22
2023-02-06T23:46:36.344Z,98355.97
2023-02-06T23:49:04.038Z,98357.81
2023-02-06T23:51:32.005Z,98352.66
2023-02-06T23:53:59.132Z,98357.66
2023-02-06T23:56:29.090Z,98346.59
2023-02-06T23:58:57.854Z,98340.50
